Time;durP1;ratioP1;P1;durP2;ratioP2;P2;SDS_P1;SDS_P2;PMS_P1;PMS_P2;Temp;Humidity;BMP_temperature;BMP_pressure;BME280_temperature;BME280_humidity;BME280_pressure;Samples;Min_cycle;Max_cycle;Signal;HPM_P1;HPM_P2
2024/03/03 00:00:39;;;;;;;34.50;2.75;;;24.50;55.40;;;;;;5114005;28;20098;-51
2024/03/03 00:03:05;;;;;;;41.20;3.00;;;24.30;56.10;;;;;;5113743;28;20076;-56
2024/03/03 00:05:32;;;;;;;46.40;2.72;;;24.20;56.90;;;;;;5112336;28;20088;-50
2024/03/03 00:07:58;;;;;;;34.08;2.42;;;24.00;57.20;;;;;;5113958;28;20079;-52
2024/03/03 00:10:25;;;;;;;23.17;2.20;;;24.20;57.30;;;;;;5113578;28;20064;-57
2024/03/03 00:12:52;;;;;;;17.67;1.70;;;23.80;58.00;;;;;;5113701;28;20410;-52
2024/03/03 00:15:18;;;;;;;17.35;1.80;;;24.00;58.40;;;;;;5113507;28;20066;-56
2024/03/03 00:17:45;;;;;;;42.70;2.13;;;24.00;58.30;;;;;;5113261;28;20119;-53
2024/03/03 00:20:12;;;;;;;15.30;1.63;;;23.70;59.00;;;;;;5094393;28;20100;-51
2024/03/03 00:22:38;;;;;;;22.95;1.83;;;23.50;59.70;;;;;;5093192;28;20151;-53
2024/03/03 00:25:05;;;;;;;20.08;1.70;;;23.50;59.50;;;;;;5092567;28;20534;-49
2024/03/03 00:27:31;;;;;;;27.83;2.53;;;23.60;59.70;;;;;;5091120;28;20080;-52
2024/03/03 00:29:58;;;;;;;28.70;2.42;;;23.40;60.30;;;;;;5092830;28;20079;-50
2024/03/03 00:32:25;;;;;;;39.13;2.22;;;23.20;60.60;;;;;;5092812;28;20072;-54
2024/03/03 00:34:51;;;;;;;12.88;1.27;;;23.00;62.00;;;;;;5101161;28;20069;-54
2024/03/03 00:37:18;;;;;;;16.08;1.10;;;22.90;62.40;;;;;;5109028;28;20068;-48
2024/03/03 00:39:45;;;;;;;16.98;1.10;;;22.80;62.10;;;;;;5112974;27;20099;-49
2024/03/03 00:42:12;;;;;;;9.32;1.23;;;22.60;62.30;;;;;;5100470;27;20064;-52
2024/03/03 00:44:38;;;;;;;12.93;1.30;;;22.50;62.80;;;;;;5105485;28;20088;-51
2024/03/03 00:47:05;;;;;;;13.38;1.50;;;22.50;63.10;;;;;;5102396;28;20064;-50
2024/03/03 00:49:32;;;;;;;12.85;1.42;;;22.50;63.40;;;;;;5108313;28;20445;-53
2024/03/03 00:51:59;;;;;;;37.90;16.90;;;22.40;63.60;;;;;;5103371;28;20072;-57
2024/03/03 00:54:25;;;;;;;15.63;2.13;;;22.30;63.80;;;;;;5109613;27;20070;-50
2024/03/03 00:56:52;;;;;;;18.63;2.00;;;22.30;63.70;;;;;;5105144;28;20180;-49
2024/03/03 00:59:18;;;;;;;17.88;2.25;;;22.30;64.00;;;;;;5104715;28;20100;-55
2024/03/03 01:01:45;;;;;;;24.50;1.80;;;22.30;64.10;;;;;;5109079;28;20072;-54
2024/03/03 01:04:13;;;;;;;22.15;6.28;;;22.40;64.30;;;;;;5108511;28;20083;-53
2024/03/03 01:06:39;;;;;;;25.15;2.95;;;22.20;65.80;;;;;;5106217;28;20581;-50
2024/03/03 01:09:05;;;;;;;17.10;2.35;;;21.70;71.10;;;;;;5108026;27;20489;-49
2024/03/03 01:11:32;;;;;;;17.25;1.55;;;21.30;73.30;;;;;;5104653;27;20100;-53
2024/03/03 01:13:58;;;;;;;10.88;1.77;;;21.10;74.30;;;;;;5105823;28;20088;-55
2024/03/03 01:16:25;;;;;;;13.05;1.85;;;21.00;75.50;;;;;;5101869;28;20091;-52
2024/03/03 01:18:52;;;;;;;8.23;1.35;;;20.60;76.80;;;;;;5101516;28;20108;-57
2024/03/03 01:21:19;;;;;;;11.63;1.60;;;20.40;77.90;;;;;;5102330;28;20155;-49
2024/03/03 01:23:46;;;;;;;11.77;2.30;;;20.30;78.30;;;;;;5105156;28;20406;-57
2024/03/03 01:26:12;;;;;;;8.55;2.60;;;20.20;78.60;;;;;;5104973;27;20506;-55
2024/03/03 01:28:39;;;;;;;12.05;4.05;;;20.10;78.90;;;;;;5100723;28;20064;-60
2024/03/03 01:31:05;;;;;;;15.18;3.30;;;20.00;79.10;;;;;;5102813;28;20068;-50
2024/03/03 01:33:32;;;;;;;18.92;3.03;;;19.90;79.20;;;;;;5101407;28;20510;-55
2024/03/03 01:35:59;;;;;;;11.02;1.98;;;19.90;79.10;;;;;;5104861;27;20073;-50
2024/03/03 01:38:25;;;;;;;10.80;2.22;;;19.80;79.00;;;;;;5097718;28;20179;-52
2024/03/03 01:40:52;;;;;;;10.43;2.45;;;19.80;79.30;;;;;;5105549;28;20186;-50
2024/03/03 01:43:18;;;;;;;14.80;1.90;;;19.80;79.20;;;;;;5102163;28;20080;-53
2024/03/03 01:45:45;;;;;;;11.73;1.67;;;19.70;79.10;;;;;;5104496;28;20413;-52
2024/03/03 01:48:12;;;;;;;4.50;1.60;;;19.60;79.40;;;;;;5101512;28;20091;-52
2024/03/03 01:50:41;;;;;;;4.25;1.20;;;19.60;79.50;;;;;;5091332;28;20221;-50
2024/03/03 01:53:09;;;;;;;6.82;1.40;;;19.60;79.60;;;;;;5109173;28;20083;-52
2024/03/03 01:55:35;;;;;;;5.60;1.38;;;19.50;79.70;;;;;;5102905;27;20083;-55
2024/03/03 01:58:03;;;;;;;7.25;1.58;;;19.50;79.80;;;;;;5102346;27;20095;-57
2024/03/03 02:00:32;;;;;;;5.55;1.38;;;19.40;80.20;;;;;;5099714;28;20175;-56
2024/03/03 02:03:03;;;;;;;12.00;9.43;;;19.40;80.50;;;;;;5108088;27;20064;-53
2024/03/03 02:05:32;;;;;;;9.40;3.60;;;19.40;80.40;;;;;;5117320;27;20636;-51
2024/03/03 02:07:59;;;;;;;5.03;1.88;;;19.30;80.50;;;;;;5101072;27;20579;-50
2024/03/03 02:10:26;;;;;;;4.32;1.50;;;19.40;80.60;;;;;;5109659;27;20064;-50
2024/03/03 02:12:52;;;;;;;2.78;1.30;;;19.40;80.60;;;;;;5115313;27;20079;-56
2024/03/03 02:15:19;;;;;;;5.63;1.58;;;19.40;80.60;;;;;;5110439;27;20069;-57
2024/03/03 02:17:46;;;;;;;26.30;16.60;;;19.40;80.90;;;;;;5103829;27;20203;-58
2024/03/03 02:20:12;;;;;;;3.72;1.38;;;19.30;80.50;;;;;;5098333;27;20108;-54
2024/03/03 02:22:39;;;;;;;23.23;16.33;;;19.40;80.60;;;;;;5102207;27;20072;-58
2024/03/03 02:25:06;;;;;;;25.63;16.02;;;19.40;80.40;;;;;;5113035;27;20100;-54
2024/03/03 02:27:34;;;;;;;22.58;16.25;;;19.40;80.30;;;;;;5099966;27;20076;-53
2024/03/03 02:30:04;;;;;;;27.15;16.08;;;19.40;80.40;;;;;;5106087;27;20204;-53
2024/03/03 02:32:31;;;;;;;10.27;2.00;;;19.30;80.30;;;;;;5100156;27;20060;-53
2024/03/03 02:34:57;;;;;;;7.22;2.00;;;19.40;80.00;;;;;;5108843;27;20083;-53
2024/03/03 02:37:24;;;;;;;9.45;1.63;;;19.30;79.90;;;;;;5107765;27;20075;-55
2024/03/03 02:39:50;;;;;;;7.88;1.45;;;19.30;80.10;;;;;;5105332;27;20207;-54
2024/03/03 02:42:17;;;;;;;3.38;1.30;;;19.20;80.00;;;;;;5103638;27;20382;-57
2024/03/03 02:44:43;;;;;;;3.45;1.60;;;19.20;80.10;;;;;;5095701;27;20068;-52
2024/03/03 02:47:10;;;;;;;3.42;1.50;;;19.20;80.10;;;;;;5103657;27;20072;-56
2024/03/03 02:49:36;;;;;;;8.57;1.75;;;19.20;79.80;;;;;;5098382;27;20110;-53
2024/03/03 02:52:03;;;;;;;9.82;1.58;;;19.10;80.00;;;;;;5105932;28;20068;-48
2024/03/03 02:54:29;;;;;;;10.27;1.60;;;19.10;80.10;;;;;;5090119;28;20073;-49
2024/03/03 02:56:56;;;;;;;13.95;1.77;;;19.10;80.40;;;;;;5099290;27;20094;-53
2024/03/03 02:59:22;;;;;;;9.88;1.63;;;19.10;80.60;;;;;;5114634;28;20601;-46
2024/03/03 03:01:49;;;;;;;8.93;1.50;;;19.10;80.60;;;;;;5114959;28;20083;-50
2024/03/03 03:04:15;;;;;;;7.95;1.25;;;19.10;80.10;;;;;;5108889;27;20125;-60
2024/03/03 03:06:42;;;;;;;15.80;2.15;;;19.10;80.20;;;;;;5105961;27;20079;-59
2024/03/03 03:09:08;;;;;;;9.50;1.13;;;19.10;80.20;;;;;;5103577;27;20092;-60
2024/03/03 03:11:37;;;;;;;4.47;1.25;;;19.10;79.80;;;;;;5101776;27;20110;-61
2024/03/03 03:14:04;;;;;;;7.93;1.38;;;19.10;79.60;;;;;;5103059;27;20475;-61
2024/03/03 03:16:30;;;;;;;4.13;1.30;;;19.10;79.50;;;;;;5100839;27;20072;-60
2024/03/03 03:18:57;;;;;;;4.47;1.45;;;19.10;79.20;;;;;;5104173;27;20226;-62
2024/03/03 03:21:27;;;;;;;5.68;1.30;;;19.20;78.90;;;;;;5105237;27;20103;-61
2024/03/03 03:23:53;;;;;;;8.15;1.00;;;19.20;78.60;;;;;;5102733;27;20095;-61
2024/03/03 03:26:20;;;;;;;3.95;1.25;;;19.20;78.30;;;;;;5101118;27;20159;-53
2024/03/03 03:28:47;;;;;;;8.38;1.38;;;19.20;78.50;;;;;;5101927;27;20085;-58
2024/03/03 03:31:13;;;;;;;13.43;1.13;;;19.20;78.40;;;;;;5102055;27;20068;-53
2024/03/03 03:33:40;;;;;;;9.68;1.05;;;19.10;78.50;;;;;;5103993;27;20100;-52
2024/03/03 03:36:10;;;;;;;41.20;2.90;;;19.20;78.30;;;;;;5109315;27;20245;-51
2024/03/03 03:38:37;;;;;;;39.63;3.53;;;19.20;77.00;;;;;;5105343;27;20075;-50
2024/03/03 03:41:04;;;;;;;50.53;3.75;;;19.30;76.30;;;;;;5102139;27;20195;-52
2024/03/03 03:43:31;;;;;;;46.33;4.07;;;19.30;75.90;;;;;;5100442;27;20522;-55
2024/03/03 03:45:58;;;;;;;48.78;4.38;;;19.30;75.80;;;;;;5102947;27;20125;-52
2024/03/03 03:48:25;;;;;;;44.97;3.83;;;19.30;75.90;;;;;;5101676;27;20104;-52
2024/03/03 03:50:52;;;;;;;27.38;3.05;;;19.30;76.00;;;;;;5101860;27;20068;-54
2024/03/03 03:53:20;;;;;;;28.45;2.17;;;19.30;76.00;;;;;;5105726;27;20206;-62
2024/03/03 03:55:46;;;;;;;14.27;1.92;;;19.30;76.10;;;;;;5102056;27;20081;-49
2024/03/03 03:58:14;;;;;;;28.70;2.40;;;19.30;76.10;;;;;;5103937;27;20075;-60
2024/03/03 04:00:40;;;;;;;18.17;1.52;;;19.30;76.10;;;;;;5104481;27;20155;-60
2024/03/03 04:03:07;;;;;;;10.95;1.35;;;19.30;76.20;;;;;;5101986;27;20429;-59
2024/03/03 04:05:33;;;;;;;8.68;1.13;;;19.30;76.40;;;;;;5110913;27;20545;-50
2024/03/03 04:07:59;;;;;;;24.38;1.80;;;19.30;76.10;;;;;;5104671;27;20155;-51
2024/03/03 04:10:26;;;;;;;21.42;1.90;;;19.30;76.00;;;;;;5102128;27;20078;-50
2024/03/03 04:12:55;;;;;;;14.30;1.52;;;19.30;76.30;;;;;;5103111;27;20519;-55
2024/03/03 04:15:22;;;;;;;12.80;1.48;;;19.20;76.30;;;;;;5107600;27;20075;-46
2024/03/03 04:17:48;;;;;;;12.93;2.08;;;19.20;76.60;;;;;;5112421;27;20619;-55
2024/03/03 04:20:16;;;;;;;10.45;1.67;;;19.20;76.50;;;;;;5098458;27;20446;-48
2024/03/03 04:22:42;;;;;;;12.32;1.60;;;19.20;76.70;;;;;;5114018;27;20071;-54
2024/03/03 04:25:09;;;;;;;13.23;1.27;;;19.20;76.70;;;;;;5109903;27;20080;-50
2024/03/03 04:27:39;;;;;;;4.78;1.08;;;19.30;76.80;;;;;;5096403;28;20121;-53
2024/03/03 04:30:07;;;;;;;4.88;0.88;;;19.20;76.90;;;;;;5103181;28;20068;-53
2024/03/03 04:32:33;;;;;;;6.60;0.93;;;19.20;77.10;;;;;;5103632;27;20073;-48
2024/03/03 04:35:03;;;;;;;8.70;1.48;;;19.20;77.40;;;;;;5107239;27;20079;-51
2024/03/03 04:37:30;;;;;;;2.60;0.90;;;19.20;77.40;;;;;;5105209;27;20072;-52
2024/03/03 04:39:57;;;;;;;2.80;1.75;;;19.20;77.40;;;;;;5099788;27;20107;-52
2024/03/03 04:42:26;;;;;;;1.73;0.90;;;19.10;77.60;;;;;;5116280;27;20125;-61
2024/03/03 04:44:53;;;;;;;10.02;1.27;;;19.10;78.00;;;;;;5120921;27;20069;-50
2024/03/03 04:47:19;;;;;;;2.97;0.80;;;19.10;78.20;;;;;;5105913;27;20125;-46
2024/03/03 04:49:46;;;;;;;3.47;1.00;;;19.10;78.40;;;;;;5098979;27;20581;-61
2024/03/03 04:52:12;;;;;;;2.90;0.82;;;19.10;78.40;;;;;;5102943;27;20517;-62
2024/03/03 04:54:39;;;;;;;6.57;1.00;;;19.10;78.80;;;;;;5107636;27;20095;-61
2024/03/03 04:57:06;;;;;;;5.10;1.02;;;19.10;78.80;;;;;;5102492;28;20126;-61
2024/03/03 04:59:32;;;;;;;7.10;0.93;;;19.10;79.20;;;;;;5105132;28;20521;-61
2024/03/03 05:01:59;;;;;;;1.33;0.75;;;19.10;79.50;;;;;;5101494;28;20076;-60
2024/03/03 05:04:27;;;;;;;8.45;1.15;;;19.10;79.30;;;;;;5109055;28;20068;-59
2024/03/03 05:06:53;;;;;;;4.15;1.92;;;19.10;79.50;;;;;;5103357;28;20452;-60
2024/03/03 05:09:20;;;;;;;6.28;1.83;;;19.10;79.50;;;;;;5107382;28;20064;-61
2024/03/03 05:11:47;;;;;;;2.70;1.13;;;19.10;79.50;;;;;;5106982;28;20079;-60
2024/03/03 05:14:13;;;;;;;9.35;1.08;;;19.10;79.80;;;;;;5110178;28;20158;-58
2024/03/03 05:16:39;;;;;;;6.60;1.08;;;19.00;80.30;;;;;;5107408;28;20068;-50
2024/03/03 05:19:08;;;;;;;4.68;0.77;;;19.00;79.50;;;;;;5112165;28;20143;-48
2024/03/03 05:21:35;;;;;;;3.33;0.85;;;19.00;79.60;;;;;;5106871;28;20171;-48
2024/03/03 05:24:02;;;;;;;4.88;0.70;;;19.00;79.80;;;;;;5103178;28;20155;-52
2024/03/03 05:26:28;;;;;;;2.83;0.60;;;18.90;79.90;;;;;;5105841;28;20769;-51
2024/03/03 05:28:55;;;;;;;6.72;1.45;;;18.90;79.80;;;;;;5108408;28;20159;-63
2024/03/03 05:31:21;;;;;;;1.27;0.80;;;18.90;80.00;;;;;;5109167;28;20514;-58
2024/03/03 05:33:48;;;;;;;1.23;0.70;;;18.90;79.80;;;;;;5106166;28;20072;-53
2024/03/03 05:36:14;;;;;;;2.22;1.17;;;18.90;79.50;;;;;;5103932;28;20064;-48
2024/03/03 05:38:41;;;;;;;6.30;0.70;;;18.90;79.30;;;;;;5107918;28;20072;-58
2024/03/03 05:41:07;;;;;;;5.82;0.80;;;19.00;78.50;;;;;;5105627;28;20567;-53
2024/03/03 05:43:34;;;;;;;5.90;1.10;;;19.10;77.90;;;;;;5106520;28;20064;-50
2024/03/03 05:46:00;;;;;;;4.03;0.85;;;19.10;77.80;;;;;;5103839;28;20171;-48
2024/03/03 05:48:27;;;;;;;4.18;0.82;;;19.10;77.70;;;;;;5106964;28;20068;-49
2024/03/03 05:50:53;;;;;;;30.92;17.77;;;19.20;77.40;;;;;;5096753;28;20077;-61
2024/03/03 05:53:20;;;;;;;3.65;0.63;;;19.20;75.90;;;;;;5097571;28;20072;-46
2024/03/03 05:55:47;;;;;;;9.38;1.85;;;19.20;75.60;;;;;;5104446;28;20091;-61
2024/03/03 05:58:14;;;;;;;4.25;0.77;;;19.20;75.70;;;;;;5108552;27;20064;-61
2024/03/03 06:00:40;;;;;;;13.02;1.60;;;19.20;75.90;;;;;;5108919;28;20088;-61
2024/03/03 06:03:06;;;;;;;8.80;1.95;;;19.10;76.40;;;;;;5110494;28;20106;-60
2024/03/03 06:05:33;;;;;;;12.95;7.15;;;19.10;77.10;;;;;;5108039;28;20087;-60
2024/03/03 06:08:01;;;;;;;13.77;6.65;;;19.00;77.50;;;;;;5110268;28;20549;-61
2024/03/03 06:10:28;;;;;;;4.30;2.53;;;19.00;78.40;;;;;;5111767;28;20080;-61
2024/03/03 06:12:54;;;;;;;5.25;1.60;;;18.90;78.80;;;;;;5109688;28;20069;-61
2024/03/03 06:15:21;;;;;;;5.63;1.83;;;18.80;78.90;;;;;;5102434;28;20072;-61
2024/03/03 06:17:47;;;;;;;5.57;1.30;;;18.80;79.20;;;;;;5106326;28;20168;-60
2024/03/03 06:20:14;;;;;;;34.30;18.30;;;18.80;79.40;;;;;;5106830;28;20096;-59
2024/03/03 06:22:41;;;;;;;24.83;18.55;;;18.70;79.60;;;;;;5098606;28;20068;-59
2024/03/03 06:25:08;;;;;;;22.75;17.75;;;18.70;79.00;;;;;;5106640;28;20072;-59
2024/03/03 06:27:35;;;;;;;52.70;36.28;;;18.70;79.30;;;;;;5104593;28;20082;-59
2024/03/03 06:30:03;;;;;;;26.85;17.85;;;18.60;79.60;;;;;;5096219;28;20072;-60
2024/03/03 06:32:30;;;;;;;52.72;43.67;;;18.50;80.70;;;;;;5106041;28;20509;-60
2024/03/03 06:34:57;;;;;;;7.45;4.45;;;18.50;80.50;;;;;;5107986;28;20109;-60
2024/03/03 06:37:23;;;;;;;4.70;1.70;;;18.40;80.20;;;;;;5108816;28;20065;-60
2024/03/03 06:39:50;;;;;;;8.88;1.30;;;18.30;80.40;;;;;;5107832;28;20134;-59
2024/03/03 06:42:17;;;;;;;15.00;1.70;;;18.20;80.70;;;;;;5108307;28;20072;-59
2024/03/03 06:44:43;;;;;;;20.10;12.25;;;18.20;81.50;;;;;;5099897;28;20163;-59
2024/03/03 06:47:10;;;;;;;5.50;0.90;;;18.20;80.60;;;;;;5111586;28;20074;-59
2024/03/03 06:49:37;;;;;;;5.45;1.00;;;18.30;80.10;;;;;;5109554;27;20463;-59
2024/03/03 06:52:03;;;;;;;5.30;0.98;;;18.30;80.10;;;;;;5111278;28;20090;-60
2024/03/03 06:54:30;;;;;;;1.50;0.55;;;18.30;79.80;;;;;;5109389;27;20569;-59
2024/03/03 06:56:56;;;;;;;5.28;1.02;;;18.40;79.40;;;;;;5105656;27;20137;-58
2024/03/03 06:59:23;;;;;;;2.13;0.90;;;18.50;79.70;;;;;;5116656;27;20071;-59
2024/03/03 07:01:49;;;;;;;3.75;1.15;;;18.50;80.80;;;;;;5111497;27;20541;-60
2024/03/03 07:04:23;;;;;;;9.60;1.15;;;18.30;81.60;;;;;;5116153;27;20264;-57
2024/03/03 07:06:51;;;;;;;2.38;0.93;;;18.30;82.20;;;;;;5121664;27;20076;-58
2024/03/03 07:09:27;;;;;;;4.22;0.88;;;18.20;82.50;;;;;;5115685;27;20072;-58
2024/03/03 07:11:54;;;;;;;4.95;0.82;;;18.20;82.60;;;;;;5118780;27;20075;-58
2024/03/03 07:14:22;;;;;;;1.52;0.75;;;18.10;82.70;;;;;;5107029;27;20064;-49
2024/03/03 07:16:49;;;;;;;1.58;0.82;;;18.10;82.70;;;;;;5110712;27;20094;-58
2024/03/03 07:19:16;;;;;;;4.18;0.82;;;18.00;82.70;;;;;;5115366;27;20103;-54
2024/03/03 07:21:43;;;;;;;4.70;0.80;;;18.00;82.90;;;;;;5112260;27;20075;-53
2024/03/03 07:24:09;;;;;;;3.70;0.93;;;17.90;82.90;;;;;;5101906;27;20069;-58
2024/03/03 07:26:37;;;;;;;5.88;1.17;;;17.80;83.10;;;;;;5119375;27;20088;-53
2024/03/03 07:29:03;;;;;;;6.25;1.10;;;17.80;83.20;;;;;;5106239;27;20159;-53
2024/03/03 07:31:30;;;;;;;8.38;1.00;;;17.90;83.20;;;;;;5103155;27;20064;-56
2024/03/03 07:33:57;;;;;;;6.50;1.00;;;17.80;83.10;;;;;;5112486;27;20107;-60
2024/03/03 07:36:24;;;;;;;4.72;1.05;;;17.80;83.20;;;;;;5120426;27;20164;-55
2024/03/03 07:38:50;;;;;;;6.03;1.10;;;17.90;83.20;;;;;;5109197;27;20109;-54
2024/03/03 07:41:16;;;;;;;2.25;0.80;;;17.80;83.20;;;;;;5119008;27;20191;-55
2024/03/03 07:43:43;;;;;;;5.22;1.20;;;17.80;83.10;;;;;;5113530;27;20103;-58
2024/03/03 07:46:10;;;;;;;2.15;0.90;;;17.80;83.00;;;;;;5108362;27;20082;-59
2024/03/03 07:48:37;;;;;;;5.60;1.30;;;17.70;83.10;;;;;;5113473;27;20063;-57
2024/03/03 07:51:03;;;;;;;3.28;1.13;;;17.60;83.20;;;;;;5115941;27;20094;-51
2024/03/03 07:53:31;;;;;;;3.75;1.00;;;17.70;83.10;;;;;;5121039;27;20098;-52
2024/03/03 07:55:57;;;;;;;3.92;1.63;;;18.00;81.90;;;;;;5112018;27;20471;-51
2024/03/03 07:58:24;;;;;;;3.40;1.42;;;18.20;81.60;;;;;;5112966;27;20076;-52
2024/03/03 08:00:52;;;;;;;4.80;1.75;;;18.30;81.10;;;;;;5104743;27;20104;-62
2024/03/03 08:03:18;;;;;;;8.85;1.20;;;18.40;80.50;;;;;;5111492;27;20122;-49
2024/03/03 08:05:45;;;;;;;22.25;2.58;;;18.10;80.80;;;;;;5109359;27;20110;-51
2024/03/03 08:08:11;;;;;;;2.75;0.80;;;18.10;81.30;;;;;;5118243;27;20064;-52
2024/03/03 08:10:40;;;;;;;3.42;1.00;;;18.10;81.00;;;;;;5110620;27;20064;-50
2024/03/03 08:13:06;;;;;;;6.25;1.08;;;18.00;80.90;;;;;;5115777;27;20513;-50
2024/03/03 08:15:33;;;;;;;9.52;1.30;;;18.00;81.00;;;;;;5117983;27;20068;-49
2024/03/03 08:18:03;;;;;;;14.73;1.42;;;18.10;80.90;;;;;;5119620;27;20179;-54
2024/03/03 08:20:29;;;;;;;7.28;0.90;;;18.00;80.60;;;;;;5105960;27;20100;-53
2024/03/03 08:22:56;;;;;;;4.32;1.10;;;18.00;80.50;;;;;;5121692;27;20509;-50
2024/03/03 08:25:24;;;;;;;6.13;1.10;;;18.00;80.40;;;;;;5124559;27;20067;-51
2024/03/03 08:27:51;;;;;;;7.32;3.15;;;18.00;80.40;;;;;;5110974;27;20521;-49
2024/03/03 08:30:17;;;;;;;5.90;1.00;;;18.00;80.30;;;;;;5122058;27;20417;-48
2024/03/03 08:32:44;;;;;;;27.55;17.50;;;17.90;80.40;;;;;;5108250;27;20072;-51
2024/03/03 08:35:11;;;;;;;19.00;11.60;;;17.90;80.50;;;;;;5112728;27;20083;-62
2024/03/03 08:37:37;;;;;;;11.35;1.52;;;17.80;80.70;;;;;;5118442;27;20067;-48
2024/03/03 08:40:04;;;;;;;7.47;1.70;;;17.90;80.70;;;;;;5117959;27;20568;-52
2024/03/03 08:42:31;;;;;;;6.32;1.38;;;17.80;80.50;;;;;;5118874;27;20121;-51
2024/03/03 08:44:58;;;;;;;5.70;1.48;;;17.80;80.60;;;;;;5117457;27;20068;-51
2024/03/03 08:47:24;;;;;;;8.45;1.27;;;17.80;80.30;;;;;;5113803;27;20432;-47
2024/03/03 08:49:51;;;;;;;12.13;1.30;;;17.80;80.60;;;;;;5119925;27;20074;-49
2024/03/03 08:52:17;;;;;;;6.00;1.05;;;17.80;80.50;;;;;;5104965;27;20073;-51
2024/03/03 08:54:44;;;;;;;8.90;0.95;;;17.90;80.10;;;;;;5120546;27;20091;-50
2024/03/03 08:57:10;;;;;;;9.80;1.38;;;17.80;79.80;;;;;;5117733;27;20068;-49
2024/03/03 08:59:37;;;;;;;10.65;1.38;;;17.80;80.00;;;;;;5112050;27;20538;-49
2024/03/03 09:02:03;;;;;;;5.60;1.00;;;17.80;79.70;;;;;;5122336;27;20072;-50
2024/03/03 09:04:37;;;;;;;5.20;1.00;;;17.80;79.40;;;;;;5117232;27;20084;-52
2024/03/03 09:07:08;;;;;;;7.82;1.20;;;17.90;79.00;;;;;;5124014;27;20068;-48
2024/03/03 09:09:37;;;;;;;4.95;0.80;;;17.90;78.90;;;;;;5117916;27;20068;-49
2024/03/03 09:12:04;;;;;;;2.88;0.90;;;18.00;78.40;;;;;;5115655;28;20067;-50
2024/03/03 09:14:34;;;;;;;4.00;1.13;;;17.90;78.40;;;;;;5108362;27;20074;-54
2024/03/03 09:17:00;;;;;;;2.65;0.80;;;17.90;78.70;;;;;;5107151;27;20072;-50
2024/03/03 09:19:27;;;;;;;2.80;1.10;;;17.90;77.80;;;;;;5113734;27;20505;-52
2024/03/03 09:21:53;;;;;;;3.13;0.60;;;17.90;77.80;;;;;;5119990;27;20090;-48
2024/03/03 09:24:22;;;;;;;5.90;1.05;;;17.80;77.50;;;;;;5114101;27;20091;-49
2024/03/03 09:26:49;;;;;;;8.50;1.10;;;17.80;77.00;;;;;;5103580;27;20115;-49
2024/03/03 09:29:15;;;;;;;3.83;0.82;;;17.90;77.00;;;;;;5108632;28;20075;-49
2024/03/03 09:31:42;;;;;;;11.10;1.58;;;17.80;77.70;;;;;;5115211;28;20069;-48
2024/03/03 09:34:08;;;;;;;10.85;1.10;;;17.70;77.90;;;;;;5110712;27;20162;-49
2024/03/03 09:36:34;;;;;;;4.15;1.00;;;17.70;78.20;;;;;;5106835;28;20449;-50
2024/03/03 09:39:01;;;;;;;2.50;1.13;;;17.60;78.20;;;;;;5109128;28;20080;-55
2024/03/03 09:41:28;;;;;;;5.10;1.13;;;17.60;78.00;;;;;;5119440;28;20129;-49
2024/03/03 09:44:10;;;;;;;7.45;1.13;;;17.60;77.80;;;;;;5114268;28;20154;-49
2024/03/03 09:46:38;;;;;;;6.45;1.10;;;17.60;78.00;;;;;;5110512;28;20395;-52
2024/03/03 09:49:09;;;;;;;5.65;1.10;;;17.50;78.10;;;;;;5115501;27;20109;-52
2024/03/03 09:51:38;;;;;;;5.32;1.20;;;17.50;78.40;;;;;;5118051;28;20071;-49
2024/03/03 09:54:07;;;;;;;3.65;1.13;;;17.50;78.90;;;;;;5117748;28;20121;-48
2024/03/03 09:56:38;;;;;;;8.10;0.90;;;17.40;79.70;;;;;;5112573;28;20154;-49
2024/03/03 09:59:05;;;;;;;9.18;1.20;;;17.30;80.90;;;;;;5114705;27;20711;-50
2024/03/03 10:01:33;;;;;;;8.75;1.08;;;17.30;81.70;;;;;;5112847;28;20095;-52
2024/03/03 10:04:01;;;;;;;5.22;0.80;;;17.20;82.50;;;;;;5113936;28;20072;-52
2024/03/03 10:06:29;;;;;;;3.72;0.98;;;17.20;83.10;;;;;;5121104;28;20105;-52
2024/03/03 10:08:59;;;;;;;6.68;0.70;;;17.30;83.20;;;;;;5113116;27;20510;-50
2024/03/03 10:11:26;;;;;;;10.48;0.95;;;17.20;83.70;;;;;;5113590;28;20096;-49
2024/03/03 10:13:53;;;;;;;2.22;0.65;;;17.20;84.20;;;;;;5119142;27;20100;-52
2024/03/03 10:16:21;;;;;;;4.45;0.70;;;17.20;84.30;;;;;;5118968;28;20071;-52
2024/03/03 10:19:08;;;;;;;5.28;0.85;;;17.20;84.60;;;;;;5114127;27;20111;-52
2024/03/03 10:21:38;;;;;;;4.45;0.90;;;17.10;85.20;;;;;;5124736;27;20106;-55
2024/03/03 10:24:24;;;;;;;1.80;0.57;;;17.00;85.40;;;;;;5122271;27;20080;-49
2024/03/03 10:26:55;;;;;;;3.50;0.68;;;17.10;85.40;;;;;;5114150;27;20080;-52
2024/03/03 10:29:26;;;;;;;2.85;0.50;;;17.10;85.60;;;;;;5122022;27;20078;-48
2024/03/03 10:31:54;;;;;;;3.90;0.50;;;17.10;85.40;;;;;;5111054;27;20096;-49
2024/03/03 10:34:21;;;;;;;2.30;0.70;;;17.10;85.70;;;;;;5118494;27;20079;-59
2024/03/03 10:36:48;;;;;;;2.40;0.70;;;17.10;85.50;;;;;;5120336;27;20833;-47
2024/03/03 10:39:17;;;;;;;4.22;0.57;;;17.00;85.20;;;;;;5117356;27;20216;-48
2024/03/03 10:41:44;;;;;;;3.42;0.60;;;17.00;85.40;;;;;;5117698;27;20151;-47
2024/03/03 10:44:11;;;;;;;2.63;0.90;;;17.00;85.30;;;;;;5127797;27;20072;-47
2024/03/03 10:46:41;;;;;;;2.75;0.75;;;17.00;85.30;;;;;;5118636;27;20625;-49
2024/03/03 10:49:13;;;;;;;2.20;0.68;;;16.90;84.90;;;;;;5116273;27;20534;-49
2024/03/03 10:51:39;;;;;;;11.60;0.80;;;17.00;84.80;;;;;;5120180;27;20078;-50
2024/03/03 10:54:07;;;;;;;1.90;0.70;;;16.90;84.50;;;;;;5111714;27;20076;-47
2024/03/03 10:56:36;;;;;;;12.05;0.75;;;16.90;84.40;;;;;;5119474;27;20079;-48
2024/03/03 10:59:04;;;;;;;3.10;1.10;;;16.80;84.20;;;;;;5122451;27;20079;-48
2024/03/03 11:01:33;;;;;;;3.67;0.93;;;16.80;83.90;;;;;;5124188;27;20564;-49
2024/03/03 11:04:03;;;;;;;5.30;0.93;;;16.80;83.70;;;;;;5122101;27;20067;-49
2024/03/03 11:06:30;;;;;;;8.10;1.00;;;16.90;83.60;;;;;;5118227;27;20068;-49
2024/03/03 11:08:58;;;;;;;5.85;0.98;;;16.90;83.50;;;;;;5115609;27;20079;-49
2024/03/03 11:11:25;;;;;;;7.90;1.40;;;16.80;83.30;;;;;;5123688;27;20083;-48
2024/03/03 11:13:59;;;;;;;6.65;1.10;;;16.80;83.10;;;;;;5125590;27;20167;-57
2024/03/03 11:16:29;;;;;;;7.38;1.10;;;16.80;82.90;;;;;;5106559;27;20072;-49
2024/03/03 11:19:13;;;;;;;8.45;1.13;;;16.80;82.70;;;;;;5118004;27;20480;-52
2024/03/03 11:21:49;;;;;;;3.50;0.93;;;16.70;82.80;;;;;;5117521;27;20104;-53
2024/03/03 11:24:25;;;;;;;10.55;0.90;;;16.80;82.90;;;;;;5116996;27;20067;-52
2024/03/03 11:27:02;;;;;;;5.28;1.25;;;16.70;82.30;;;;;;5113501;27;20068;-48
2024/03/03 11:29:28;;;;;;;;;;;16.70;82.20;;;;;;5124885;27;20074;-50
2024/03/03 11:31:55;;;;;;;5.93;1.02;;;16.80;81.30;;;;;;5121596;27;20402;-53
2024/03/03 11:34:23;;;;;;;7.05;1.30;;;16.80;81.10;;;;;;5117291;27;20110;-48
2024/03/03 11:36:50;;;;;;;5.57;1.25;;;16.80;81.30;;;;;;5117049;27;20067;-57
2024/03/03 11:39:16;;;;;;;3.88;1.10;;;16.80;81.40;;;;;;5122786;27;20076;-53
2024/03/03 11:41:44;;;;;;;2.00;0.90;;;16.70;81.20;;;;;;5123623;27;20144;-52
2024/03/03 11:44:35;;;;;;;4.75;0.98;;;16.70;81.10;;;;;;5124826;27;20106;-54
2024/03/03 11:47:09;;;;;;;2.88;1.02;;;16.70;81.50;;;;;;5113611;27;20108;-48
2024/03/03 11:49:43;;;;;;;2.10;0.68;;;16.70;81.70;;;;;;5117462;27;20498;-48
2024/03/03 11:52:10;;;;;;;6.50;1.17;;;16.60;81.70;;;;;;5112029;27;20194;-49
2024/03/03 11:54:41;;;;;;;4.05;1.10;;;16.60;81.40;;;;;;5119442;27;20079;-48
2024/03/03 11:57:10;;;;;;;1.92;0.88;;;16.50;81.50;;;;;;5120117;27;20081;-60
2024/03/03 11:59:48;;;;;;;3.28;0.82;;;16.50;81.80;;;;;;5118071;27;20095;-48
2024/03/03 12:02:16;;;;;;;2.30;1.02;;;16.50;81.70;;;;;;5118335;27;20122;-48
2024/03/03 12:04:46;;;;;;;2.35;0.80;;;16.40;81.90;;;;;;5114783;27;20146;-47
2024/03/03 12:07:18;;;;;;;3.70;0.88;;;16.40;82.00;;;;;;5125373;27;20563;-56
2024/03/03 12:09:45;;;;;;;2.17;0.98;;;16.40;82.00;;;;;;5121237;27;20075;-49
2024/03/03 12:12:12;;;;;;;2.80;1.08;;;16.40;82.00;;;;;;5109249;27;20130;-48
2024/03/03 12:14:39;;;;;;;3.35;0.90;;;16.40;82.10;;;;;;5120423;27;20179;-54
2024/03/03 12:17:07;;;;;;;2.58;0.90;;;16.40;81.50;;;;;;5120101;27;20067;-49
2024/03/03 12:19:37;;;;;;;2.03;0.85;;;16.50;81.10;;;;;;5111521;27;20141;-48
2024/03/03 12:22:04;;;;;;;1.85;0.77;;;16.60;80.20;;;;;;5125482;27;20083;-48
2024/03/03 12:24:32;;;;;;;2.85;1.00;;;16.70;80.00;;;;;;5120203;27;20125;-48
2024/03/03 12:26:58;;;;;;;2.85;1.10;;;16.70;79.90;;;;;;5112558;27;20099;-50
2024/03/03 12:29:25;;;;;;;3.85;1.10;;;16.70;80.00;;;;;;5123568;27;20559;-50
2024/03/03 12:31:51;;;;;;;1.95;1.08;;;16.70;79.80;;;;;;5114959;27;20477;-50
2024/03/03 12:34:17;;;;;;;3.40;1.15;;;16.60;79.80;;;;;;5117355;27;20537;-49
2024/03/03 12:36:45;;;;;;;2.67;0.98;;;16.70;79.60;;;;;;5120656;27;20116;-50
2024/03/03 12:39:12;;;;;;;4.13;1.23;;;16.70;79.40;;;;;;5111847;27;20068;-48
2024/03/03 12:41:38;;;;;;;3.35;0.90;;;16.60;79.50;;;;;;5121122;27;20558;-48
2024/03/03 12:44:05;;;;;;;2.65;0.90;;;16.60;79.40;;;;;;5114316;27;20076;-49